sensor_id;sensor_type;location;lat;lon;timestamp;temperature;humidity
21602;DHT22;10963;50.934;4.668;2023-03-11T00:00:54;2.80;99.90
21602;DHT22;10963;50.934;4.668;2023-03-11T00:03:22;2.60;99.90
21602;DHT22;10963;50.934;4.668;2023-03-11T00:05:49;2.60;99.90
21602;DHT22;10963;50.934;4.668;2023-03-11T00:08:23;2.50;99.90
21602;DHT22;10963;50.934;4.668;2023-03-11T00:11:00;2.50;99.90
21602;DHT22;10963;50.934;4.668;2023-03-11T00:13:27;2.50;99.90
21602;DHT22;10963;50.934;4.668;2023-03-11T00:15:56;2.40;99.90
21602;DHT22;10963;50.934;4.668;2023-03-11T00:18:27;2.40;99.90
21602;DHT22;10963;50.934;4.668;2023-03-11T00:20:56;2.40;99.90
21602;DHT22;10963;50.934;4.668;2023-03-11T00:23:24;2.40;99.90
21602;DHT22;10963;50.934;4.668;2023-03-11T00:25:50;2.40;99.90
21602;DHT22;10963;50.934;4.668;2023-03-11T00:28:18;2.40;99.90
21602;DHT22;10963;50.934;4.668;2023-03-11T00:30:47;2.40;99.90
21602;DHT22;10963;50.934;4.668;2023-03-11T00:33:16;2.40;99.90
21602;DHT22;10963;50.934;4.668;2023-03-11T00:35:45;2.50;99.90
21602;DHT22;10963;50.934;4.668;2023-03-11T00:38:15;2.60;99.90
21602;DHT22;10963;50.934;4.668;2023-03-11T00:40:41;2.70;99.90
21602;DHT22;10963;50.934;4.668;2023-03-11T00:43:10;2.70;99.90
21602;DHT22;10963;50.934;4.668;2023-03-11T00:45:36;2.70;99.90
21602;DHT22;10963;50.934;4.668;2023-03-11T00:48:02;2.70;99.90
21602;DHT22;10963;50.934;4.668;2023-03-11T00:50:30;2.80;99.90
21602;DHT22;10963;50.934;4.668;2023-03-11T00:52:59;2.90;99.90
21602;DHT22;10963;50.934;4.668;2023-03-11T00:55:29;3.00;99.90
21602;DHT22;10963;50.934;4.668;2023-03-11T00:58:02;3.00;99.90
21602;DHT22;10963;50.934;4.668;2023-03-11T01:00:28;3.00;99.90
21602;DHT22;10963;50.934;4.668;2023-03-11T01:02:55;2.90;99.90
21602;DHT22;10963;50.934;4.668;2023-03-11T01:05:23;2.80;99.90
21602;DHT22;10963;50.934;4.668;2023-03-11T01:07:52;2.60;99.90
21602;DHT22;10963;50.934;4.668;2023-03-11T01:10:17;2.40;99.90
21602;DHT22;10963;50.934;4.668;2023-03-11T01:12:46;2.30;99.90
21602;DHT22;10963;50.934;4.668;2023-03-11T01:15:23;2.30;99.90
21602;DHT22;10963;50.934;4.668;2023-03-11T01:17:49;2.40;99.90
21602;DHT22;10963;50.934;4.668;2023-03-11T01:20:14;2.30;99.90
21602;DHT22;10963;50.934;4.668;2023-03-11T01:22:42;2.30;99.90
21602;DHT22;10963;50.934;4.668;2023-03-11T01:25:12;2.20;99.90
21602;DHT22;10963;50.934;4.668;2023-03-11T01:27:41;2.30;99.90
21602;DHT22;10963;50.934;4.668;2023-03-11T01:30:17;2.20;99.90
21602;DHT22;10963;50.934;4.668;2023-03-11T01:32:43;2.20;99.90
21602;DHT22;10963;50.934;4.668;2023-03-11T01:35:13;2.10;99.90
21602;DHT22;10963;50.934;4.668;2023-03-11T01:37:39;2.10;99.90
21602;DHT22;10963;50.934;4.668;2023-03-11T01:40:06;2.10;99.90
21602;DHT22;10963;50.934;4.668;2023-03-11T01:42:35;2.10;99.90
21602;DHT22;10963;50.934;4.668;2023-03-11T01:45:00;2.10;99.90
21602;DHT22;10963;50.934;4.668;2023-03-11T01:50:00;2.20;99.90
21602;DHT22;10963;50.934;4.668;2023-03-11T01:52:28;2.20;99.90
21602;DHT22;10963;50.934;4.668;2023-03-11T01:54:55;2.40;99.90
21602;DHT22;10963;50.934;4.668;2023-03-11T01:57:20;2.50;99.90
21602;DHT22;10963;50.934;4.668;2023-03-11T01:59:53;2.60;99.90
21602;DHT22;10963;50.934;4.668;2023-03-11T02:04:50;2.80;99.90
21602;DHT22;10963;50.934;4.668;2023-03-11T02:07:20;3.00;99.90
21602;DHT22;10963;50.934;4.668;2023-03-11T02:09:46;3.00;99.90
21602;DHT22;10963;50.934;4.668;2023-03-11T02:12:15;3.00;99.90
21602;DHT22;10963;50.934;4.668;2023-03-11T02:14:47;3.00;99.90
21602;DHT22;10963;50.934;4.668;2023-03-11T02:17:13;3.10;99.90
21602;DHT22;10963;50.934;4.668;2023-03-11T02:22:29;3.20;99.90
21602;DHT22;10963;50.934;4.668;2023-03-11T02:25:10;3.20;99.90
21602;DHT22;10963;50.934;4.668;2023-03-11T02:27:45;3.20;99.90
21602;DHT22;10963;50.934;4.668;2023-03-11T02:30:17;3.20;99.90
21602;DHT22;10963;50.934;4.668;2023-03-11T02:32:45;3.30;99.90
21602;DHT22;10963;50.934;4.668;2023-03-11T02:35:14;3.40;99.90
21602;DHT22;10963;50.934;4.668;2023-03-11T02:37:51;3.40;99.90
21602;DHT22;10963;50.934;4.668;2023-03-11T02:43:15;3.30;99.90
21602;DHT22;10963;50.934;4.668;2023-03-11T02:45:46;3.10;99.90
21602;DHT22;10963;50.934;4.668;2023-03-11T02:48:13;3.10;99.90
21602;DHT22;10963;50.934;4.668;2023-03-11T02:50:40;3.10;99.90
21602;DHT22;10963;50.934;4.668;2023-03-11T02:53:06;3.10;99.90
21602;DHT22;10963;50.934;4.668;2023-03-11T02:55:37;3.00;99.90
21602;DHT22;10963;50.934;4.668;2023-03-11T02:58:05;3.00;99.90
21602;DHT22;10963;50.934;4.668;2023-03-11T03:00:34;2.90;99.90
21602;DHT22;10963;50.934;4.668;2023-03-11T03:02:59;2.90;99.90
21602;DHT22;10963;50.934;4.668;2023-03-11T03:05:28;2.80;99.90
21602;DHT22;10963;50.934;4.668;2023-03-11T03:07:56;2.70;99.90
21602;DHT22;10963;50.934;4.668;2023-03-11T03:10:22;2.80;99.90
21602;DHT22;10963;50.934;4.668;2023-03-11T03:12:50;2.70;99.90
21602;DHT22;10963;50.934;4.668;2023-03-11T03:15:18;2.60;99.90
21602;DHT22;10963;50.934;4.668;2023-03-11T03:17:44;2.60;99.90
21602;DHT22;10963;50.934;4.668;2023-03-11T03:20:11;2.60;99.90
21602;DHT22;10963;50.934;4.668;2023-03-11T03:22:41;2.60;99.90
21602;DHT22;10963;50.934;4.668;2023-03-11T03:25:10;2.50;99.90
21602;DHT22;10963;50.934;4.668;2023-03-11T03:27:38;2.40;99.90
21602;DHT22;10963;50.934;4.668;2023-03-11T03:30:05;2.30;99.90
21602;DHT22;10963;50.934;4.668;2023-03-11T03:32:31;2.40;99.90
21602;DHT22;10963;50.934;4.668;2023-03-11T03:34:57;2.40;99.90
21602;DHT22;10963;50.934;4.668;2023-03-11T03:37:25;2.40;99.90
21602;DHT22;10963;50.934;4.668;2023-03-11T03:39:54;2.50;99.90
21602;DHT22;10963;50.934;4.668;2023-03-11T03:42:22;2.50;99.90
21602;DHT22;10963;50.934;4.668;2023-03-11T03:44:52;2.70;99.90
21602;DHT22;10963;50.934;4.668;2023-03-11T03:47:19;2.80;99.90
21602;DHT22;10963;50.934;4.668;2023-03-11T03:49:47;2.70;99.90
21602;DHT22;10963;50.934;4.668;2023-03-11T03:52:17;2.60;99.90
21602;DHT22;10963;50.934;4.668;2023-03-11T03:54:43;2.50;99.90
21602;DHT22;10963;50.934;4.668;2023-03-11T03:57:09;2.40;99.90
21602;DHT22;10963;50.934;4.668;2023-03-11T03:59:37;2.40;99.90
21602;DHT22;10963;50.934;4.668;2023-03-11T04:02:02;2.40;99.90
21602;DHT22;10963;50.934;4.668;2023-03-11T04:04:31;2.20;99.90
21602;DHT22;10963;50.934;4.668;2023-03-11T04:06:56;2.10;99.90
21602;DHT22;10963;50.934;4.668;2023-03-11T04:09:22;2.10;99.90
21602;DHT22;10963;50.934;4.668;2023-03-11T04:11:48;2.00;99.90
21602;DHT22;10963;50.934;4.668;2023-03-11T04:14:16;2.00;99.90
21602;DHT22;10963;50.934;4.668;2023-03-11T04:16:44;1.90;99.90
21602;DHT22;10963;50.934;4.668;2023-03-11T04:19:10;1.90;99.90
21602;DHT22;10963;50.934;4.668;2023-03-11T04:21:38;1.90;99.90
21602;DHT22;10963;50.934;4.668;2023-03-11T04:24:04;1.80;99.90
21602;DHT22;10963;50.934;4.668;2023-03-11T04:26:30;1.70;99.90
21602;DHT22;10963;50.934;4.668;2023-03-11T04:28:56;1.80;99.90
21602;DHT22;10963;50.934;4.668;2023-03-11T04:31:22;1.70;99.90
21602;DHT22;10963;50.934;4.668;2023-03-11T04:33:47;1.70;99.90
21602;DHT22;10963;50.934;4.668;2023-03-11T04:36:16;1.70;99.90
21602;DHT22;10963;50.934;4.668;2023-03-11T04:38:41;1.70;99.90
21602;DHT22;10963;50.934;4.668;2023-03-11T04:41:07;1.60;99.90
21602;DHT22;10963;50.934;4.668;2023-03-11T04:43:35;1.50;99.90
21602;DHT22;10963;50.934;4.668;2023-03-11T04:46:01;1.50;99.90
21602;DHT22;10963;50.934;4.668;2023-03-11T04:48:26;1.40;99.90
21602;DHT22;10963;50.934;4.668;2023-03-11T04:50:53;1.40;99.90
21602;DHT22;10963;50.934;4.668;2023-03-11T04:53:20;1.40;99.90
21602;DHT22;10963;50.934;4.668;2023-03-11T04:55:45;1.40;99.90
21602;DHT22;10963;50.934;4.668;2023-03-11T04:58:15;1.50;99.90
21602;DHT22;10963;50.934;4.668;2023-03-11T05:00:46;1.50;99.90
21602;DHT22;10963;50.934;4.668;2023-03-11T05:03:14;1.60;99.90
21602;DHT22;10963;50.934;4.668;2023-03-11T05:05:40;1.60;99.90
21602;DHT22;10963;50.934;4.668;2023-03-11T05:08:05;1.60;99.90
21602;DHT22;10963;50.934;4.668;2023-03-11T05:10:31;1.60;99.90
21602;DHT22;10963;50.934;4.668;2023-03-11T05:12:57;1.50;99.90
21602;DHT22;10963;50.934;4.668;2023-03-11T05:15:23;1.50;99.90
21602;DHT22;10963;50.934;4.668;2023-03-11T05:17:49;1.40;99.90
21602;DHT22;10963;50.934;4.668;2023-03-11T05:20:17;1.30;99.90
21602;DHT22;10963;50.934;4.668;2023-03-11T05:22:43;1.30;99.90
21602;DHT22;10963;50.934;4.668;2023-03-11T05:25:09;1.20;99.90
21602;DHT22;10963;50.934;4.668;2023-03-11T05:27:37;1.20;99.90
21602;DHT22;10963;50.934;4.668;2023-03-11T05:30:03;1.20;99.90
21602;DHT22;10963;50.934;4.668;2023-03-11T05:32:29;1.20;99.90
21602;DHT22;10963;50.934;4.668;2023-03-11T05:34:54;1.20;99.90
21602;DHT22;10963;50.934;4.668;2023-03-11T05:37:25;1.20;99.90
21602;DHT22;10963;50.934;4.668;2023-03-11T05:39:53;1.20;99.90
21602;DHT22;10963;50.934;4.668;2023-03-11T05:42:18;1.10;99.90
21602;DHT22;10963;50.934;4.668;2023-03-11T05:44:47;1.10;99.90
21602;DHT22;10963;50.934;4.668;2023-03-11T05:47:17;1.10;99.90
21602;DHT22;10963;50.934;4.668;2023-03-11T05:49:49;1.10;99.90
21602;DHT22;10963;50.934;4.668;2023-03-11T05:52:17;1.10;99.90
21602;DHT22;10963;50.934;4.668;2023-03-11T05:54:42;1.10;99.90
21602;DHT22;10963;50.934;4.668;2023-03-11T05:57:08;1.10;99.90
21602;DHT22;10963;50.934;4.668;2023-03-11T05:59:36;1.10;99.90
21602;DHT22;10963;50.934;4.668;2023-03-11T06:02:02;1.20;99.90
21602;DHT22;10963;50.934;4.668;2023-03-11T06:04:30;1.10;99.90
21602;DHT22;10963;50.934;4.668;2023-03-11T06:06:56;1.10;99.90
21602;DHT22;10963;50.934;4.668;2023-03-11T06:09:24;1.10;99.90
21602;DHT22;10963;50.934;4.668;2023-03-11T06:11:52;1.00;99.90
21602;DHT22;10963;50.934;4.668;2023-03-11T06:14:17;1.00;99.90
21602;DHT22;10963;50.934;4.668;2023-03-11T06:16:43;0.90;99.90
21602;DHT22;10963;50.934;4.668;2023-03-11T06:19:09;0.90;99.90
21602;DHT22;10963;50.934;4.668;2023-03-11T06:21:35;0.90;99.90
21602;DHT22;10963;50.934;4.668;2023-03-11T06:24:01;1.00;99.90
21602;DHT22;10963;50.934;4.668;2023-03-11T06:26:31;1.00;99.90
21602;DHT22;10963;50.934;4.668;2023-03-11T06:28:57;1.10;99.90
21602;DHT22;10963;50.934;4.668;2023-03-11T06:31:25;1.10;99.90
21602;DHT22;10963;50.934;4.668;2023-03-11T06:33:52;1.10;99.90
21602;DHT22;10963;50.934;4.668;2023-03-11T06:36:21;1.00;99.90
21602;DHT22;10963;50.934;4.668;2023-03-11T06:38:47;1.00;99.90
21602;DHT22;10963;50.934;4.668;2023-03-11T06:41:15;1.00;99.90
21602;DHT22;10963;50.934;4.668;2023-03-11T06:43:44;1.00;99.90
21602;DHT22;10963;50.934;4.668;2023-03-11T06:46:19;1.00;99.90
21602;DHT22;10963;50.934;4.668;2023-03-11T06:48:45;1.00;99.90
21602;DHT22;10963;50.934;4.668;2023-03-11T06:51:11;1.00;99.90
21602;DHT22;10963;50.934;4.668;2023-03-11T06:53:37;0.90;99.90
21602;DHT22;10963;50.934;4.668;2023-03-11T06:56:11;1.00;99.90
21602;DHT22;10963;50.934;4.668;2023-03-11T06:58:38;1.00;99.90
21602;DHT22;10963;50.934;4.668;2023-03-11T07:01:20;1.00;99.90
21602;DHT22;10963;50.934;4.668;2023-03-11T07:03:52;1.00;99.90
21602;DHT22;10963;50.934;4.668;2023-03-11T07:06:21;1.10;99.90
21602;DHT22;10963;50.934;4.668;2023-03-11T07:08:48;1.10;99.90
21602;DHT22;10963;50.934;4.668;2023-03-11T07:11:15;1.20;99.90
21602;DHT22;10963;50.934;4.668;2023-03-11T07:13:41;1.40;99.90
21602;DHT22;10963;50.934;4.668;2023-03-11T07:16:13;1.50;99.90
21602;DHT22;10963;50.934;4.668;2023-03-11T07:18:46;1.60;99.90
21602;DHT22;10963;50.934;4.668;2023-03-11T07:21:14;1.60;99.90
21602;DHT22;10963;50.934;4.668;2023-03-11T07:23:40;1.60;99.90
21602;DHT22;10963;50.934;4.668;2023-03-11T07:26:11;1.60;99.90
21602;DHT22;10963;50.934;4.668;2023-03-11T07:28:37;1.70;99.90
21602;DHT22;10963;50.934;4.668;2023-03-11T07:31:15;1.70;99.90
21602;DHT22;10963;50.934;4.668;2023-03-11T07:33:43;1.80;99.90
21602;DHT22;10963;50.934;4.668;2023-03-11T07:36:14;1.90;99.90
21602;DHT22;10963;50.934;4.668;2023-03-11T07:38:41;2.00;99.90
21602;DHT22;10963;50.934;4.668;2023-03-11T07:41:10;1.90;99.90
21602;DHT22;10963;50.934;4.668;2023-03-11T07:43:37;1.80;99.90
21602;DHT22;10963;50.934;4.668;2023-03-11T07:46:10;1.80;99.90
21602;DHT22;10963;50.934;4.668;2023-03-11T07:48:37;1.90;99.90
21602;DHT22;10963;50.934;4.668;2023-03-11T07:51:17;2.00;99.90
21602;DHT22;10963;50.934;4.668;2023-03-11T07:53:44;2.10;99.90
21602;DHT22;10963;50.934;4.668;2023-03-11T07:56:11;2.10;99.90
21602;DHT22;10963;50.934;4.668;2023-03-11T07:58:37;2.10;99.90
21602;DHT22;10963;50.934;4.668;2023-03-11T08:01:12;2.20;99.90
21602;DHT22;10963;50.934;4.668;2023-03-11T08:03:39;2.40;99.90
21602;DHT22;10963;50.934;4.668;2023-03-11T08:06:20;2.50;99.90
21602;DHT22;10963;50.934;4.668;2023-03-11T08:08:49;2.60;99.90
21602;DHT22;10963;50.934;4.668;2023-03-11T08:11:16;2.70;99.90
21602;DHT22;10963;50.934;4.668;2023-03-11T08:13:45;2.70;99.90
21602;DHT22;10963;50.934;4.668;2023-03-11T08:16:15;2.80;99.90
21602;DHT22;10963;50.934;4.668;2023-03-11T08:18:41;3.00;99.90
21602;DHT22;10963;50.934;4.668;2023-03-11T08:21:10;3.20;99.90
21602;DHT22;10963;50.934;4.668;2023-03-11T08:23:37;3.30;99.90
21602;DHT22;10963;50.934;4.668;2023-03-11T08:26:07;3.30;99.90
21602;DHT22;10963;50.934;4.668;2023-03-11T08:28:33;3.50;99.90
21602;DHT22;10963;50.934;4.668;2023-03-11T08:30:59;3.50;99.90
21602;DHT22;10963;50.934;4.668;2023-03-11T08:33:30;3.60;99.90
21602;DHT22;10963;50.934;4.668;2023-03-11T08:35:58;3.80;99.90
21602;DHT22;10963;50.934;4.668;2023-03-11T08:38:27;3.90;99.90
21602;DHT22;10963;50.934;4.668;2023-03-11T08:40:53;3.90;99.90
21602;DHT22;10963;50.934;4.668;2023-03-11T08:43:19;4.10;99.90
21602;DHT22;10963;50.934;4.668;2023-03-11T08:45:44;4.20;99.90
21602;DHT22;10963;50.934;4.668;2023-03-11T08:48:14;4.20;99.90
21602;DHT22;10963;50.934;4.668;2023-03-11T08:50:41;4.30;99.90
21602;DHT22;10963;50.934;4.668;2023-03-11T08:53:07;4.30;99.90
21602;DHT22;10963;50.934;4.668;2023-03-11T08:55:35;4.40;99.90
21602;DHT22;10963;50.934;4.668;2023-03-11T08:58:01;4.70;99.90
21602;DHT22;10963;50.934;4.668;2023-03-11T09:00:29;4.70;99.90
21602;DHT22;10963;50.934;4.668;2023-03-11T09:02:57;4.90;99.90
21602;DHT22;10963;50.934;4.668;2023-03-11T09:05:23;4.90;99.90
21602;DHT22;10963;50.934;4.668;2023-03-11T09:07:49;5.00;99.90
21602;DHT22;10963;50.934;4.668;2023-03-11T09:10:19;5.10;99.90
21602;DHT22;10963;50.934;4.668;2023-03-11T09:12:45;5.20;99.90
21602;DHT22;10963;50.934;4.668;2023-03-11T09:15:11;5.30;99.90
21602;DHT22;10963;50.934;4.668;2023-03-11T09:17:39;5.60;99.90
21602;DHT22;10963;50.934;4.668;2023-03-11T09:20:05;5.70;99.90
21602;DHT22;10963;50.934;4.668;2023-03-11T09:22:31;5.50;99.90
21602;DHT22;10963;50.934;4.668;2023-03-11T09:24:57;5.60;99.90
21602;DHT22;10963;50.934;4.668;2023-03-11T09:27:25;5.70;99.90
21602;DHT22;10963;50.934;4.668;2023-03-11T09:29:51;5.80;99.90
21602;DHT22;10963;50.934;4.668;2023-03-11T09:32:16;5.80;99.90
21602;DHT22;10963;50.934;4.668;2023-03-11T09:34:44;5.90;99.90
21602;DHT22;10963;50.934;4.668;2023-03-11T09:37:12;6.10;99.90
21602;DHT22;10963;50.934;4.668;2023-03-11T09:39:38;6.20;99.90
21602;DHT22;10963;50.934;4.668;2023-03-11T09:42:24;6.30;99.90
21602;DHT22;10963;50.934;4.668;2023-03-11T09:45:14;6.60;99.90
21602;DHT22;10963;50.934;4.668;2023-03-11T09:50:43;7.00;99.90
21602;DHT22;10963;50.934;4.668;2023-03-11T09:53:27;7.00;99.90
21602;DHT22;10963;50.934;4.668;2023-03-11T09:55:58;7.10;99.90
21602;DHT22;10963;50.934;4.668;2023-03-11T10:01:45;7.70;99.90
21602;DHT22;10963;50.934;4.668;2023-03-11T10:04:36;7.80;99.90
21602;DHT22;10963;50.934;4.668;2023-03-11T10:07:11;8.00;99.90
21602;DHT22;10963;50.934;4.668;2023-03-11T10:09:48;8.30;99.90
21602;DHT22;10963;50.934;4.668;2023-03-11T10:20:25;8.60;99.90
21602;DHT22;10963;50.934;4.668;2023-03-11T10:25:24;8.40;99.90
21602;DHT22;10963;50.934;4.668;2023-03-11T10:27:56;8.30;99.90
21602;DHT22;10963;50.934;4.668;2023-03-11T10:30:48;8.10;99.90
21602;DHT22;10963;50.934;4.668;2023-03-11T10:36:38;8.30;99.90
21602;DHT22;10963;50.934;4.668;2023-03-11T10:39:05;8.60;99.90
21602;DHT22;10963;50.934;4.668;2023-03-11T10:41:42;8.80;99.90
21602;DHT22;10963;50.934;4.668;2023-03-11T10:44:38;9.10;99.90
21602;DHT22;10963;50.934;4.668;2023-03-11T10:47:06;9.30;99.90
21602;DHT22;10963;50.934;4.668;2023-03-11T10:49:39;9.50;99.90
21602;DHT22;10963;50.934;4.668;2023-03-11T10:52:07;9.70;99.90
21602;DHT22;10963;50.934;4.668;2023-03-11T10:54:39;9.70;99.90
21602;DHT22;10963;50.934;4.668;2023-03-11T10:57:41;9.60;99.90
21602;DHT22;10963;50.934;4.668;2023-03-11T11:00:07;9.30;99.90
21602;DHT22;10963;50.934;4.668;2023-03-11T11:02:54;9.10;99.90
21602;DHT22;10963;50.934;4.668;2023-03-11T11:05:30;9.10;99.90
21602;DHT22;10963;50.934;4.668;2023-03-11T11:08:13;9.20;99.90
21602;DHT22;10963;50.934;4.668;2023-03-11T11:10:52;9.30;99.90
21602;DHT22;10963;50.934;4.668;2023-03-11T11:13:26;9.50;99.90
21602;DHT22;10963;50.934;4.668;2023-03-11T11:19:02;9.50;99.90
21602;DHT22;10963;50.934;4.668;2023-03-11T11:21:37;9.50;99.90
21602;DHT22;10963;50.934;4.668;2023-03-11T11:26:38;9.50;99.90
21602;DHT22;10963;50.934;4.668;2023-03-11T11:31:38;10.30;99.90
21602;DHT22;10963;50.934;4.668;2023-03-11T11:34:30;10.20;99.90
21602;DHT22;10963;50.934;4.668;2023-03-11T11:36:59;10.40;99.90
21602;DHT22;10963;50.934;4.668;2023-03-11T11:39:29;10.30;99.90
21602;DHT22;10963;50.934;4.668;2023-03-11T11:41:55;10.00;99.90
21602;DHT22;10963;50.934;4.668;2023-03-11T11:44:33;10.10;99.90
21602;DHT22;10963;50.934;4.668;2023-03-11T11:47:19;10.10;99.90
21602;DHT22;10963;50.934;4.668;2023-03-11T11:49:53;10.40;99.90
21602;DHT22;10963;50.934;4.668;2023-03-11T11:53:04;10.70;99.90
21602;DHT22;10963;50.934;4.668;2023-03-11T11:55:29;11.30;99.90
21602;DHT22;10963;50.934;4.668;2023-03-11T11:57:56;11.20;99.90
21602;DHT22;10963;50.934;4.668;2023-03-11T12:09:11;10.40;99.90
21602;DHT22;10963;50.934;4.668;2023-03-11T12:11:43;10.20;99.90
21602;DHT22;10963;50.934;4.668;2023-03-11T12:14:20;9.90;99.90
21602;DHT22;10963;50.934;4.668;2023-03-11T12:19:33;9.60;99.90
21602;DHT22;10963;50.934;4.668;2023-03-11T12:28:13;9.00;99.90
21602;DHT22;10963;50.934;4.668;2023-03-11T12:30:45;9.10;99.90
21602;DHT22;10963;50.934;4.668;2023-03-11T12:36:02;9.60;99.90
21602;DHT22;10963;50.934;4.668;2023-03-11T12:38:35;9.60;99.90
21602;DHT22;10963;50.934;4.668;2023-03-11T12:46:09;9.90;99.90
21602;DHT22;10963;50.934;4.668;2023-03-11T12:49:08;9.90;99.90
21602;DHT22;10963;50.934;4.668;2023-03-11T12:56:57;10.40;99.90
21602;DHT22;10963;50.934;4.668;2023-03-11T13:09:43;10.30;99.90
21602;DHT22;10963;50.934;4.668;2023-03-11T13:12:47;10.10;99.90
21602;DHT22;10963;50.934;4.668;2023-03-11T13:36:48;9.80;99.90
21602;DHT22;10963;50.934;4.668;2023-03-11T13:39:21;9.80;99.90
21602;DHT22;10963;50.934;4.668;2023-03-11T13:41:52;9.80;99.90
21602;DHT22;10963;50.934;4.668;2023-03-11T13:44:25;9.90;99.90
21602;DHT22;10963;50.934;4.668;2023-03-11T13:47:06;10.10;99.90
21602;DHT22;10963;50.934;4.668;2023-03-11T13:52:27;9.60;99.90
21602;DHT22;10963;50.934;4.668;2023-03-11T13:55:00;9.30;99.90
21602;DHT22;10963;50.934;4.668;2023-03-11T13:57:35;9.20;99.90
21602;DHT22;10963;50.934;4.668;2023-03-11T14:00:16;9.00;99.90
21602;DHT22;10963;50.934;4.668;2023-03-11T14:03:02;8.80;99.90
21602;DHT22;10963;50.934;4.668;2023-03-11T14:05:31;8.90;99.90
21602;DHT22;10963;50.934;4.668;2023-03-11T14:10:56;9.00;99.90
21602;DHT22;10963;50.934;4.668;2023-03-11T14:13:23;9.00;99.90
21602;DHT22;10963;50.934;4.668;2023-03-11T14:20:57;9.20;99.90
21602;DHT22;10963;50.934;4.668;2023-03-11T14:23:32;9.20;99.90
21602;DHT22;10963;50.934;4.668;2023-03-11T14:26:07;9.20;99.90
21602;DHT22;10963;50.934;4.668;2023-03-11T14:28:36;9.10;99.90
21602;DHT22;10963;50.934;4.668;2023-03-11T14:31:03;9.10;99.90
21602;DHT22;10963;50.934;4.668;2023-03-11T14:33:34;9.20;99.90
21602;DHT22;10963;50.934;4.668;2023-03-11T14:36:04;9.30;99.90
21602;DHT22;10963;50.934;4.668;2023-03-11T14:38:41;9.40;99.90
21602;DHT22;10963;50.934;4.668;2023-03-11T14:41:12;9.50;99.90
21602;DHT22;10963;50.934;4.668;2023-03-11T14:43:43;9.40;99.90
21602;DHT22;10963;50.934;4.668;2023-03-11T14:46:17;9.40;99.90
21602;DHT22;10963;50.934;4.668;2023-03-11T14:48:46;9.40;99.90
21602;DHT22;10963;50.934;4.668;2023-03-11T14:51:20;9.40;99.90
21602;DHT22;10963;50.934;4.668;2023-03-11T14:56:38;9.60;99.90
21602;DHT22;10963;50.934;4.668;2023-03-11T14:59:14;9.70;99.90
21602;DHT22;10963;50.934;4.668;2023-03-11T15:01:44;9.80;99.90
21602;DHT22;10963;50.934;4.668;2023-03-11T15:04:11;9.80;99.90
21602;DHT22;10963;50.934;4.668;2023-03-11T15:06:41;9.90;99.90
21602;DHT22;10963;50.934;4.668;2023-03-11T15:09:11;9.90;99.90
21602;DHT22;10963;50.934;4.668;2023-03-11T15:11:49;10.00;99.90
21602;DHT22;10963;50.934;4.668;2023-03-11T15:14:25;10.00;99.90
21602;DHT22;10963;50.934;4.668;2023-03-11T15:16:53;10.00;99.90
21602;DHT22;10963;50.934;4.668;2023-03-11T15:21:53;10.10;99.90
21602;DHT22;10963;50.934;4.668;2023-03-11T15:24:25;10.10;99.90
21602;DHT22;10963;50.934;4.668;2023-03-11T15:27:16;10.30;99.90
21602;DHT22;10963;50.934;4.668;2023-03-11T15:29:51;10.30;99.90
21602;DHT22;10963;50.934;4.668;2023-03-11T15:32:46;10.20;99.90
21602;DHT22;10963;50.934;4.668;2023-03-11T15:35:19;10.20;99.90
21602;DHT22;10963;50.934;4.668;2023-03-11T15:37:46;10.00;99.90
21602;DHT22;10963;50.934;4.668;2023-03-11T15:40:25;10.00;99.90
21602;DHT22;10963;50.934;4.668;2023-03-11T15:43:30;9.90;99.90
21602;DHT22;10963;50.934;4.668;2023-03-11T15:45:59;9.70;99.90
21602;DHT22;10963;50.934;4.668;2023-03-11T15:48:28;9.60;99.90
21602;DHT22;10963;50.934;4.668;2023-03-11T15:50:57;9.60;99.90
21602;DHT22;10963;50.934;4.668;2023-03-11T15:53:25;9.60;99.90
21602;DHT22;10963;50.934;4.668;2023-03-11T15:55:52;9.60;99.90
21602;DHT22;10963;50.934;4.668;2023-03-11T15:58:21;9.60;99.90
21602;DHT22;10963;50.934;4.668;2023-03-11T16:00:54;9.60;99.90
21602;DHT22;10963;50.934;4.668;2023-03-11T16:03:25;9.70;99.90
21602;DHT22;10963;50.934;4.668;2023-03-11T16:05:54;9.60;99.90
21602;DHT22;10963;50.934;4.668;2023-03-11T16:08:22;9.50;99.90
21602;DHT22;10963;50.934;4.668;2023-03-11T16:10:50;9.70;99.90
21602;DHT22;10963;50.934;4.668;2023-03-11T16:13:16;9.70;99.90
21602;DHT22;10963;50.934;4.668;2023-03-11T16:15:42;9.30;99.90
21602;DHT22;10963;50.934;4.668;2023-03-11T16:18:11;9.10;99.90
21602;DHT22;10963;50.934;4.668;2023-03-11T16:20:43;8.90;99.90
21602;DHT22;10963;50.934;4.668;2023-03-11T16:23:17;9.00;99.90
21602;DHT22;10963;50.934;4.668;2023-03-11T16:25:45;8.90;99.90
21602;DHT22;10963;50.934;4.668;2023-03-11T16:28:13;8.70;99.90
21602;DHT22;10963;50.934;4.668;2023-03-11T16:30:39;8.70;99.90
21602;DHT22;10963;50.934;4.668;2023-03-11T16:33:05;8.70;99.90
21602;DHT22;10963;50.934;4.668;2023-03-11T16:35:30;8.70;99.90
21602;DHT22;10963;50.934;4.668;2023-03-11T16:37:56;8.60;99.90
21602;DHT22;10963;50.934;4.668;2023-03-11T16:40:25;8.60;99.90
21602;DHT22;10963;50.934;4.668;2023-03-11T16:43:07;8.60;99.90
21602;DHT22;10963;50.934;4.668;2023-03-11T16:45:33;8.60;99.90
21602;DHT22;10963;50.934;4.668;2023-03-11T16:48:05;8.50;99.90
21602;DHT22;10963;50.934;4.668;2023-03-11T16:50:32;8.50;99.90
21602;DHT22;10963;50.934;4.668;2023-03-11T16:52:58;8.40;99.90
21602;DHT22;10963;50.934;4.668;2023-03-11T16:55:25;8.40;99.90
21602;DHT22;10963;50.934;4.668;2023-03-11T16:57:53;8.40;99.90
21602;DHT22;10963;50.934;4.668;2023-03-11T17:00:23;8.50;99.90
21602;DHT22;10963;50.934;4.668;2023-03-11T17:02:49;8.50;99.90
21602;DHT22;10963;50.934;4.668;2023-03-11T17:05:15;8.50;99.90
21602;DHT22;10963;50.934;4.668;2023-03-11T17:07:41;8.50;99.90
21602;DHT22;10963;50.934;4.668;2023-03-11T17:10:10;8.50;99.90
21602;DHT22;10963;50.934;4.668;2023-03-11T17:12:40;8.50;99.90
21602;DHT22;10963;50.934;4.668;2023-03-11T17:15:06;8.50;99.90
21602;DHT22;10963;50.934;4.668;2023-03-11T17:17:35;8.50;99.90
21602;DHT22;10963;50.934;4.668;2023-03-11T17:20:01;8.40;99.90
21602;DHT22;10963;50.934;4.668;2023-03-11T17:22:26;8.40;99.90
21602;DHT22;10963;50.934;4.668;2023-03-11T17:24:52;8.30;99.90
21602;DHT22;10963;50.934;4.668;2023-03-11T17:27:20;8.30;99.90
21602;DHT22;10963;50.934;4.668;2023-03-11T17:29:45;8.10;99.90
21602;DHT22;10963;50.934;4.668;2023-03-11T17:32:11;8.10;99.90
21602;DHT22;10963;50.934;4.668;2023-03-11T17:34:40;8.00;99.90
21602;DHT22;10963;50.934;4.668;2023-03-11T17:37:08;8.00;99.90
21602;DHT22;10963;50.934;4.668;2023-03-11T17:39:34;8.00;99.90
21602;DHT22;10963;50.934;4.668;2023-03-11T17:42:00;8.10;99.90
21602;DHT22;10963;50.934;4.668;2023-03-11T17:44:28;7.90;99.90
21602;DHT22;10963;50.934;4.668;2023-03-11T17:46:56;7.90;99.90
21602;DHT22;10963;50.934;4.668;2023-03-11T17:49:25;7.70;99.90
21602;DHT22;10963;50.934;4.668;2023-03-11T17:51:50;7.70;99.90
21602;DHT22;10963;50.934;4.668;2023-03-11T17:54:16;7.70;99.90
21602;DHT22;10963;50.934;4.668;2023-03-11T17:56:42;7.60;99.90
21602;DHT22;10963;50.934;4.668;2023-03-11T17:59:07;7.50;99.90